createdAt,value
2022-11-10T00:02:46.654Z,101033.03
2022-11-10T00:05:33.844Z,101036.53
2022-11-10T00:08:20.626Z,101039.56
2022-11-10T00:11:14.321Z,101043.19
2022-11-10T00:14:19.076Z,101042.59
2022-11-10T00:17:06.804Z,101039.22
2022-11-10T00:19:53.195Z,101045.50
2022-11-10T00:22:40.662Z,101046.47
2022-11-10T00:25:27.580Z,101052.06
2022-11-10T00:28:15.234Z,101057.47
2022-11-10T00:31:06.778Z,101056.63
2022-11-10T00:33:54.440Z,101058.31
2022-11-10T00:36:41.268Z,101070.19
2022-11-10T00:39:29.273Z,101070.19
2022-11-10T00:42:15.684Z,101081.78
2022-11-10T00:45:03.632Z,101091.69
2022-11-10T00:47:50.739Z,101089.16
2022-11-10T00:50:39.346Z,101087.59
2022-11-10T00:53:25.593Z,101093.84
2022-11-10T00:56:12.313Z,101094.13
2022-11-10T00:58:58.528Z,101089.78
2022-11-10T01:01:45.457Z,101080.13
2022-11-10T01:04:31.830Z,101082.03
2022-11-10T01:07:20.751Z,101088.44
2022-11-10T01:10:07.718Z,101088.69
2022-11-10T01:12:58.365Z,101091.34
2022-11-10T01:15:45.675Z,101091.59
2022-11-10T01:18:33.389Z,101090.00
2022-11-10T01:21:21.175Z,101090.97
2022-11-10T01:24:08.872Z,101097.41
2022-11-10T01:26:55.050Z,101102.81
2022-11-10T01:29:41.576Z,101121.53
2022-11-10T01:32:27.829Z,101126.13
2022-11-10T01:35:14.291Z,101125.63
2022-11-10T01:38:00.366Z,101127.56
2022-11-10T01:40:47.933Z,101124.16
2022-11-10T01:43:36.238Z,101138.56
2022-11-10T01:46:29.495Z,101132.50
2022-11-10T01:49:19.664Z,101131.91
2022-11-10T01:52:10.061Z,101132.13
2022-11-10T01:54:56.575Z,101149.16
2022-11-10T01:57:44.502Z,101145.03
2022-11-10T02:00:30.745Z,101148.78
2022-11-10T02:03:24.324Z,101152.50
2022-11-10T02:06:12.815Z,101147.56
2022-11-10T02:08:59.455Z,101145.13
2022-11-10T02:11:46.853Z,101153.09
2022-11-10T02:14:35.304Z,101161.31
2022-11-10T02:17:23.230Z,101160.69
2022-11-10T02:20:12.969Z,101167.94
2022-11-10T02:23:01.106Z,101168.13
2022-11-10T02:25:47.105Z,101162.97
2022-11-10T02:28:35.231Z,101167.63
2022-11-10T02:31:21.522Z,101169.56
2022-11-10T02:34:10.313Z,101162.66
2022-11-10T02:36:56.553Z,101160.97
2022-11-10T02:39:44.322Z,101165.44
2022-11-10T02:42:30.608Z,101166.28
2022-11-10T02:45:17.472Z,101173.41
2022-11-10T02:48:03.648Z,101175.22
2022-11-10T02:50:49.545Z,101182.34
2022-11-10T02:53:35.558Z,101184.25
2022-11-10T02:56:24.256Z,101191.38
2022-11-10T02:59:10.996Z,101188.72
2022-11-10T03:01:57.120Z,101195.72
2022-11-10T03:04:44.637Z,101197.63
2022-11-10T03:07:30.871Z,101189.78
2022-11-10T03:10:20.251Z,101187.25
2022-11-10T03:13:08.974Z,101191.38
2022-11-10T03:15:55.358Z,101195.84
2022-11-10T03:18:42.619Z,101198.38
2022-11-10T03:21:29.234Z,101205.50
2022-11-10T03:24:15.559Z,101201.88
2022-11-10T03:27:01.534Z,101213.22
2022-11-10T03:29:50.938Z,101218.53
2022-11-10T03:32:37.755Z,101230.59
2022-11-10T03:35:24.625Z,101240.38
2022-11-10T03:38:11.263Z,101232.41
2022-11-10T03:44:07.358Z,101233.00
2022-11-10T03:46:56.258Z,101233.78
2022-11-10T03:49:44.264Z,101230.88
2022-11-10T03:52:30.282Z,101227.38
2022-11-10T03:55:18.382Z,101231.63
2022-11-10T03:58:05.547Z,101230.53
2022-11-10T04:00:53.600Z,101239.22
2022-11-10T04:03:41.947Z,101244.53
2022-11-10T04:06:45.938Z,101254.22
2022-11-10T04:09:32.682Z,101257.81
2022-11-10T04:12:37.374Z,101268.31
2022-11-10T04:15:43.530Z,101279.03
2022-11-10T04:18:29.986Z,101286.28
2022-11-10T04:21:20.421Z,101286.28
2022-11-10T04:24:07.195Z,101287.25
2022-11-10T04:26:54.328Z,101290.75
2022-11-10T04:29:40.463Z,101298.59
2022-11-10T04:32:26.548Z,101305.69
2022-11-10T04:35:12.600Z,101303.03
2022-11-10T04:38:01.358Z,101308.34
2022-11-10T04:40:47.888Z,101311.84
2022-11-10T04:43:34.311Z,101308.34
2022-11-10T04:46:28.232Z,101311.00
2022-11-10T04:49:14.546Z,101321.50
2022-11-10T04:52:01.708Z,101322.47
2022-11-10T04:54:49.370Z,101321.75
2022-11-10T04:57:35.400Z,101323.44
2022-11-10T05:00:25.768Z,101321.75
2022-11-10T05:03:13.799Z,101327.78
2022-11-10T05:06:00.145Z,101321.63
2022-11-10T05:08:47.275Z,101331.28
2022-11-10T05:11:35.256Z,101334.91
2022-11-10T05:14:21.718Z,101341.16
2022-11-10T05:17:14.302Z,101348.28
2022-11-10T05:20:01.286Z,101356.13
2022-11-10T05:23:08.157Z,101366.88
2022-11-10T05:25:54.179Z,101376.53
2022-11-10T05:28:43.396Z,101376.63
2022-11-10T05:31:30.794Z,101385.56
2022-11-10T05:34:17.369Z,101389.16
2022-11-10T05:37:03.559Z,101390.13
2022-11-10T05:39:49.585Z,101394.69
2022-11-10T05:42:35.635Z,101398.44
2022-11-10T05:48:37.554Z,101396.09
2022-11-10T05:51:25.810Z,101397.91
2022-11-10T05:54:13.494Z,101404.28
2022-11-10T05:56:59.621Z,101407.03
2022-11-10T05:59:45.897Z,101410.66
2022-11-10T06:02:34.077Z,101415.97
2022-11-10T06:05:20.319Z,101415.97
2022-11-10T06:08:07.492Z,101411.63
2022-11-10T06:10:57.380Z,101410.66
2022-11-10T06:13:44.252Z,101414.28
2022-11-10T06:16:30.445Z,101416.94
2022-11-10T06:19:20.029Z,101430.19
2022-11-10T06:22:07.824Z,101423.94
2022-11-10T06:24:54.165Z,101437.06
2022-11-10T06:27:44.343Z,101451.19
2022-11-10T06:30:33.345Z,101455.53
2022-11-10T06:33:20.710Z,101457.97
2022-11-10T06:36:09.527Z,101467.63
2022-11-10T06:38:55.493Z,101471.13
2022-11-10T06:41:43.252Z,101478.06
2022-11-10T06:44:29.398Z,101483.25
2022-11-10T06:47:18.603Z,101481.44
2022-11-10T06:50:08.238Z,101490.13
2022-11-10T06:53:00.291Z,101497.03
2022-11-10T06:55:49.311Z,101489.09
2022-11-10T06:58:38.275Z,101499.59
2022-11-10T07:01:26.491Z,101504.16
2022-11-10T07:04:20.162Z,101512.13
2022-11-10T07:07:07.299Z,101506.69
2022-11-10T07:09:54.589Z,101518.91
2022-11-10T07:12:40.884Z,101518.06
2022-11-10T07:15:27.492Z,101518.81
2022-11-10T07:18:15.259Z,101523.88
2022-11-10T07:21:03.265Z,101523.88
2022-11-10T07:23:49.580Z,101526.34
2022-11-10T07:26:36.957Z,101535.88
2022-11-10T07:29:23.606Z,101539.38
2022-11-10T07:32:11.671Z,101539.38
2022-11-10T07:34:57.974Z,101551.59
2022-11-10T07:37:44.016Z,101554.03
2022-11-10T07:40:33.308Z,101568.69
2022-11-10T07:43:23.673Z,101567.53
2022-11-10T07:46:10.598Z,101562.72
2022-11-10T07:48:57.257Z,101562.31
2022-11-10T07:51:43.739Z,101574.19
2022-11-10T07:54:33.267Z,101569.16
2022-11-10T07:57:19.160Z,101575.00
2022-11-10T08:00:09.429Z,101578.91
2022-11-10T08:02:57.274Z,101585.72
2022-11-10T08:05:43.933Z,101594.94
2022-11-10T08:08:30.280Z,101604.50
2022-11-10T08:11:41.553Z,101603.31
2022-11-10T08:14:31.313Z,101615.63
2022-11-10T08:17:20.002Z,101626.69
2022-11-10T08:20:08.115Z,101623.94
2022-11-10T08:22:59.049Z,101625.81
2022-11-10T08:25:46.641Z,101621.28
2022-11-10T08:28:34.354Z,101628.03
2022-11-10T08:31:20.700Z,101624.44
2022-11-10T08:34:11.621Z,101624.09
2022-11-10T08:36:57.590Z,101636.94
2022-11-10T08:39:43.646Z,101638.53
2022-11-10T08:42:35.265Z,101652.91
2022-11-10T08:45:21.618Z,101647.47
2022-11-10T08:48:10.545Z,101662.34
2022-11-10T08:51:00.755Z,101654.66
2022-11-10T08:53:47.614Z,101656.13
2022-11-10T08:56:38.262Z,101658.78
2022-11-10T08:59:24.707Z,101669.94
2022-11-10T09:02:11.270Z,101677.59
2022-11-10T09:08:11.555Z,101681.41
2022-11-10T09:10:58.705Z,101680.34
2022-11-10T09:13:45.504Z,101665.75
2022-11-10T09:16:31.575Z,101681.13
2022-11-10T09:19:20.017Z,101665.91
2022-11-10T09:22:09.549Z,101669.94
2022-11-10T09:25:02.008Z,101676.63
2022-11-10T09:27:52.291Z,101685.13
2022-11-10T09:30:38.474Z,101680.66
2022-11-10T09:33:25.100Z,101684.53
2022-11-10T09:36:11.627Z,101679.22
2022-11-10T09:39:00.555Z,101691.59
2022-11-10T09:41:48.119Z,101695.38
2022-11-10T09:44:37.310Z,101697.44
2022-11-10T09:47:55.633Z,101705.69
2022-11-10T09:50:39.153Z,101714.66
2022-11-10T09:53:32.251Z,101710.53
2022-11-10T09:56:22.451Z,101721.06
2022-11-10T09:59:19.808Z,101713.50
2022-11-10T10:02:20.198Z,101712.41
2022-11-10T10:05:36.457Z,101720.38
2022-11-10T10:08:33.751Z,101713.84
2022-11-10T10:11:31.272Z,101723.03
2022-11-10T10:14:39.052Z,101713.03
2022-11-10T10:17:40.785Z,101709.00
2022-11-10T10:20:36.341Z,101713.59
2022-11-10T10:23:53.942Z,101718.78
2022-11-10T10:26:40.686Z,101713.53
2022-11-10T10:29:37.529Z,101720.06
2022-11-10T10:32:25.286Z,101722.03
2022-11-10T10:35:15.167Z,101723.09
2022-11-10T10:38:03.227Z,101729.13
2022-11-10T10:40:52.901Z,101731.19
2022-11-10T10:43:40.011Z,101735.16
2022-11-10T10:46:32.878Z,101736.41
2022-11-10T10:49:29.184Z,101743.03
2022-11-10T10:52:20.206Z,101738.66
2022-11-10T10:55:14.235Z,101747.34
2022-11-10T10:58:03.589Z,101755.69
2022-11-10T11:00:52.803Z,101752.88
2022-11-10T11:03:45.396Z,101748.72
2022-11-10T11:06:36.349Z,101765.34
2022-11-10T11:09:27.352Z,101756.31
2022-11-10T11:12:26.418Z,101768.19
2022-11-10T11:15:20.644Z,101766.09
2022-11-10T11:18:15.158Z,101769.38
2022-11-10T11:21:10.208Z,101760.22
2022-11-10T11:24:17.627Z,101765.19
2022-11-10T11:27:09.024Z,101775.75
2022-11-10T11:30:04.618Z,101770.84
2022-11-10T11:33:14.458Z,101764.38
2022-11-10T11:36:10.289Z,101777.34
2022-11-10T11:39:10.277Z,101778.94
2022-11-10T11:42:07.196Z,101784.28
2022-11-10T11:45:12.412Z,101782.91
2022-11-10T11:48:14.623Z,101795.28
2022-11-10T11:51:12.313Z,101788.13
2022-11-10T11:54:11.879Z,101786.44
2022-11-10T11:57:11.020Z,101793.91
2022-11-10T12:00:06.755Z,101787.03
2022-11-10T12:03:21.790Z,101790.56
2022-11-10T12:06:30.378Z,101794.91
2022-11-10T12:09:26.027Z,101790.94
2022-11-10T12:12:36.652Z,101795.31
2022-11-10T12:15:34.318Z,101803.72
2022-11-10T12:18:30.316Z,101797.28
2022-11-10T12:21:27.853Z,101789.56
2022-11-10T12:24:45.620Z,101797.59
2022-11-10T12:27:37.285Z,101806.59
2022-11-10T12:30:24.778Z,101808.41
2022-11-10T12:33:18.089Z,101819.84
2022-11-10T12:36:08.689Z,101816.03
2022-11-10T12:39:02.432Z,101831.97
2022-11-10T12:41:54.428Z,101828.59
2022-11-10T12:44:52.451Z,101824.06
2022-11-10T12:47:43.988Z,101840.28
2022-11-10T12:50:42.132Z,101840.44
2022-11-10T12:53:31.517Z,101824.47
2022-11-10T12:56:25.042Z,101827.88
2022-11-10T12:59:15.512Z,101827.19
2022-11-10T13:02:04.237Z,101824.91
2022-11-10T13:05:27.082Z,101826.91
2022-11-10T13:08:17.554Z,101826.19
2022-11-10T13:11:09.680Z,101827.03
2022-11-10T13:13:59.800Z,101838.00
2022-11-10T13:16:51.850Z,101833.38
2022-11-10T13:19:52.485Z,101827.88
2022-11-10T13:22:40.771Z,101835.47
2022-11-10T13:25:59.370Z,101836.47
2022-11-10T13:29:32.040Z,101840.44
2022-11-10T13:32:27.606Z,101824.91
2022-11-10T13:35:49.960Z,101825.75
2022-11-10T13:38:44.394Z,101824.66
2022-11-10T13:41:34.045Z,101832.16
2022-11-10T13:44:26.412Z,101838.75
2022-11-10T13:47:47.237Z,101836.78
2022-11-10T13:54:21.294Z,101834.25
2022-11-10T13:57:22.490Z,101838.75
2022-11-10T14:00:25.355Z,101843.13
2022-11-10T14:03:57.405Z,101848.94
2022-11-10T14:06:49.410Z,101849.63
2022-11-10T14:12:33.277Z,101846.34
2022-11-10T14:15:23.246Z,101844.78
2022-11-10T14:18:20.590Z,101854.38
2022-11-10T14:21:13.242Z,101852.38
2022-11-10T14:24:05.345Z,101858.88
2022-11-10T14:26:54.633Z,101862.75
2022-11-10T14:29:42.225Z,101866.66
2022-11-10T14:32:28.438Z,101869.63
2022-11-10T14:38:35.691Z,101869.03
2022-11-10T14:41:24.364Z,101863.09
2022-11-10T14:44:21.301Z,101870.56
2022-11-10T14:47:23.839Z,101879.69
2022-11-10T14:50:17.350Z,101877.88
2022-11-10T14:53:08.201Z,101872.19
2022-11-10T14:55:57.312Z,101877.09
2022-11-10T14:58:46.352Z,101866.50
2022-11-10T15:01:37.942Z,101865.19
2022-11-10T15:04:27.889Z,101860.13
2022-11-10T15:07:14.896Z,101861.34
2022-11-10T15:10:15.812Z,101862.59
2022-11-10T15:13:06.441Z,101864.69
2022-11-10T15:16:27.048Z,101868.75
2022-11-10T15:19:25.081Z,101875.44
2022-11-10T15:22:20.475Z,101885.69
2022-11-10T15:25:16.209Z,101885.97
2022-11-10T15:28:07.875Z,101882.06
2022-11-10T15:30:57.332Z,101884.16
2022-11-10T15:33:49.284Z,101882.84
2022-11-10T15:36:39.509Z,101891.25
2022-11-10T15:39:27.124Z,101893.44
2022-11-10T15:42:17.306Z,101894.69
2022-11-10T15:45:05.271Z,101897.84
2022-11-10T15:47:51.694Z,101902.75
2022-11-10T15:50:39.295Z,101910.28
2022-11-10T15:53:28.774Z,101903.44
2022-11-10T15:56:17.130Z,101919.00
2022-11-10T15:59:04.282Z,101922.03
2022-11-10T16:01:52.463Z,101920.75
2022-11-10T16:04:38.643Z,101918.44
2022-11-10T16:07:25.403Z,101922.19
2022-11-10T16:10:11.545Z,101928.84
2022-11-10T16:12:57.814Z,101927.44
2022-11-10T16:15:45.310Z,101925.97
2022-11-10T16:21:49.296Z,101923.91
2022-11-10T16:24:35.695Z,101928.00
2022-11-10T16:27:22.320Z,101942.47
2022-11-10T16:30:14.603Z,101958.13
2022-11-10T16:33:01.786Z,101952.16
2022-11-10T16:35:52.229Z,101951.66
2022-11-10T16:38:38.863Z,101953.72
2022-11-10T16:41:25.157Z,101960.13
2022-11-10T16:44:13.116Z,101954.31
2022-11-10T16:46:59.321Z,101957.84
2022-11-10T16:49:46.535Z,101962.81
2022-11-10T16:52:34.786Z,101968.50
2022-11-10T16:55:20.772Z,101969.56
2022-11-10T16:58:07.412Z,101975.16
2022-11-10T17:00:58.053Z,101980.94
2022-11-10T17:03:47.814Z,101990.97
2022-11-10T17:06:34.279Z,101990.38
2022-11-10T17:09:25.452Z,101986.13
2022-11-10T17:12:13.449Z,101997.75
2022-11-10T17:14:59.847Z,102007.78
2022-11-10T17:17:51.360Z,102010.69
2022-11-10T17:20:41.394Z,102015.41
2022-11-10T17:23:28.258Z,102011.28
2022-11-10T17:26:18.617Z,102007.25
2022-11-10T17:29:05.857Z,102014.50
2022-11-10T17:31:52.902Z,102024.84
2022-11-10T17:34:39.096Z,102017.31
2022-11-10T17:37:25.866Z,102022.09
2022-11-10T17:40:19.409Z,102023.28
2022-11-10T17:43:07.326Z,102027.25
2022-11-10T17:45:54.371Z,102026.63
2022-11-10T17:48:47.317Z,102025.16
2022-11-10T17:51:34.990Z,102022.81
2022-11-10T17:54:22.306Z,102025.81
2022-11-10T17:57:15.487Z,102030.50
2022-11-10T18:00:05.281Z,102035.31
2022-11-10T18:02:55.573Z,102033.94
2022-11-10T18:05:43.087Z,102031.50
2022-11-10T18:08:29.194Z,102027.53
2022-11-10T18:11:18.407Z,102032.44
2022-11-10T18:14:05.568Z,102039.06
2022-11-10T18:16:53.016Z,102038.56
2022-11-10T18:19:39.254Z,102035.25
2022-11-10T18:22:26.761Z,102029.25
2022-11-10T18:25:13.024Z,102023.19
2022-11-10T18:27:59.036Z,102018.00
2022-11-10T18:30:47.598Z,102023.41
2022-11-10T18:33:36.733Z,102036.72
2022-11-10T18:36:22.874Z,102029.59
2022-11-10T18:39:09.696Z,102027.88
2022-11-10T18:41:56.267Z,102033.19
2022-11-10T18:44:45.638Z,102036.63
2022-11-10T18:47:32.490Z,102032.28
2022-11-10T18:50:20.599Z,102035.88
2022-11-10T18:53:10.082Z,102040.25
2022-11-10T18:55:57.207Z,102027.78
2022-11-10T18:58:43.777Z,102034.06
2022-11-10T19:01:29.824Z,102044.63
2022-11-10T19:04:16.549Z,102042.03
2022-11-10T19:07:04.033Z,102043.84
2022-11-10T19:09:51.361Z,102056.44
2022-11-10T19:12:37.593Z,102052.91
2022-11-10T19:15:24.609Z,102046.00
2022-11-10T19:18:11.280Z,102051.41
2022-11-10T19:21:00.386Z,102041.84
2022-11-10T19:23:48.410Z,102041.06
2022-11-10T19:26:34.327Z,102033.50
2022-11-10T19:29:21.789Z,102045.47
2022-11-10T19:32:12.407Z,102050.13
2022-11-10T19:34:58.798Z,102046.81
2022-11-10T19:37:48.025Z,102046.19
2022-11-10T19:40:39.241Z,102045.41
2022-11-10T19:43:25.933Z,102052.75
2022-11-10T19:46:17.645Z,102050.22
2022-11-10T19:49:06.040Z,102055.72
2022-11-10T19:51:52.066Z,102054.75
2022-11-10T19:54:38.737Z,102054.22
2022-11-10T19:57:26.455Z,102061.16
2022-11-10T20:00:15.893Z,102066.66
2022-11-10T20:03:02.085Z,102068.59
2022-11-10T20:05:48.902Z,102068.78
2022-11-10T20:08:35.158Z,102065.38
2022-11-10T20:11:24.408Z,102068.88
2022-11-10T20:14:12.415Z,102066.44
2022-11-10T20:16:58.604Z,102068.34
2022-11-10T20:19:44.695Z,102067.47
2022-11-10T20:22:32.750Z,102074.59
2022-11-10T20:25:19.144Z,102079.94
2022-11-10T20:28:30.605Z,102098.63
2022-11-10T20:31:20.626Z,102094.34
2022-11-10T20:34:07.929Z,102105.94
2022-11-10T20:36:55.558Z,102111.25
2022-11-10T20:39:43.448Z,102109.66
2022-11-10T20:42:30.908Z,102110.50
2022-11-10T20:45:17.180Z,102112.44
2022-11-10T20:48:05.043Z,102116.00
2022-11-10T20:50:51.430Z,102112.50
2022-11-10T20:53:37.984Z,102112.63
2022-11-10T20:56:29.365Z,102110.06
2022-11-10T20:59:16.026Z,102116.41
2022-11-10T21:02:02.424Z,102120.88
2022-11-10T21:04:49.811Z,102126.31
2022-11-10T21:07:35.892Z,102122.06
2022-11-10T21:10:22.062Z,102127.44
2022-11-10T21:13:08.365Z,102132.00
2022-11-10T21:15:58.351Z,102128.69
2022-11-10T21:18:45.349Z,102127.19
2022-11-10T21:21:35.070Z,102127.28
2022-11-10T21:24:21.319Z,102128.34
2022-11-10T21:27:07.408Z,102139.16
2022-11-10T21:29:55.688Z,102150.00
2022-11-10T21:32:43.672Z,102154.63
2022-11-10T21:35:38.125Z,102161.84
2022-11-10T21:38:26.367Z,102162.03
2022-11-10T21:41:12.808Z,102165.75
2022-11-10T21:44:00.940Z,102165.06
2022-11-10T21:46:47.424Z,102164.31
2022-11-10T21:49:35.629Z,102157.59
2022-11-10T21:52:21.803Z,102156.00
2022-11-10T21:55:11.963Z,102150.09
2022-11-10T21:58:00.467Z,102157.78
2022-11-10T22:00:47.363Z,102154.75
2022-11-10T22:03:34.300Z,102156.72
2022-11-10T22:06:21.141Z,102163.25
2022-11-10T22:09:07.401Z,102159.09
2022-11-10T22:12:12.896Z,102155.75
2022-11-10T22:15:16.566Z,102165.63
2022-11-10T22:18:21.339Z,102160.22
2022-11-10T22:21:08.871Z,102158.94
2022-11-10T22:24:12.455Z,102154.59
2022-11-10T22:27:02.417Z,102161.81
2022-11-10T22:29:48.380Z,102164.44
2022-11-10T22:32:34.426Z,102159.16
2022-11-10T22:35:39.204Z,102164.56
2022-11-10T22:38:25.832Z,102162.91
2022-11-10T22:49:02.240Z,102181.00
2022-11-10T22:51:51.309Z,102183.84
2022-11-10T22:54:38.801Z,102196.28
2022-11-10T22:57:25.431Z,102194.53
2022-11-10T23:00:14.948Z,102191.97
2022-11-10T23:03:01.362Z,102193.03
2022-11-10T23:05:56.306Z,102194.84
2022-11-10T23:08:42.957Z,102195.84
2022-11-10T23:11:31.666Z,102196.03
2022-11-10T23:29:05.808Z,102227.41
2022-11-10T23:31:52.110Z,102220.53
2022-11-10T23:34:40.428Z,102219.03
2022-11-10T23:37:26.484Z,102221.84
2022-11-10T23:40:13.338Z,102218.47
2022-11-10T23:42:59.573Z,102229.41
2022-11-10T23:46:06.054Z,102230.53
2022-11-10T23:48:53.329Z,102223.94
2022-11-10T23:51:41.667Z,102226.06
2022-11-10T23:54:31.330Z,102235.22
2022-11-10T23:57:17.383Z,102221.34
